メインページ
METAR-TAF:

METAR-TAF

空港 :

ヤップ国際空港

ヤップ州, ミクロネシア

緯度: 09-29N, 経度: 138-05E, 海抜: 28m

現時点の気象観測

当レポートは10分前の21:50(UTC)に作成
変向風 3kt
気温 29°C
湿度 79%
気圧 1010 hPa
視程: 19.3km
高度1600ftの雲はほとんどない
高度30000ftの千切れ雲あり

METAR: PTYA 202150Z VRB03KT 12SM FEW016 BKN300 29/25 A2983 RMK SLP103 T02870253

時間: 08:00 (22:00 UTC)

予報

当レポートは4時間40分前の17:20(UTC)に作成
予報は20日の 18時(UTC)から 21日の 18時(UTC)まで有効
北/北東の風 5kt
視程: 10km
高度1600ftの雲はほとんどない
高度13000ftの雲はほとんどない
近辺でにわか雨

TAF: PTYA 201720Z 2018/2118 03005KT P6SM VCSH FEW016 FEW130

4,000以上の空港の気象観測と天気予報(METAR報とTAF報)

利用可能な観測所は地図上に黄色い丸と赤い丸で示す。

丸の上にカーソルを重ねると観測所名を参照できる。

次にクリックすると気象観測と天気予報を参照できる。

マップの切り替え:黒色「×」印の緑ボタンをクリックして拡大、「-」印の緑ボタンをクリックして縮小、緑色の三角印をクリックして隣りの地図に切り替え


METAR-TAF: